Flight Number: AVA1757 Duration: 1:40
Departure: Prague Vaclav Havel (LKPR) at 13:00 Distance: 540.077 Nm
Arrival: Minsk Intl (UMMS) at 14:40 Equipment: A321

Weather Information
Praha / Ruzyne, Czech Republic (LKPR) 50-06N 014-15E 365M Feb 27, 2024 - 10:30 AM EST / 2024.02.27 1530 UTC
Wind: from the N (360 degrees) at 8 MPH (7 KT):0
Visibility: greater than 7 mile(s):0
Sky conditions: mostly cloudy Temperature: 46 F (8 C) Dew Point: 41 F (5 C) Relative Humidity: 81% Pressure (altimeter): 29.88 in. Hg (1012 hPa)
ob: LKPR 271530Z 36007KT 9999 FEW010 BKN015 08/05 Q1012 NOSIG cycle: 15
Sunrise: 05:53 Sunset: 16:37 (UTC)

Minsk, Belarus (UMMS) 53-56N 027-38E 231M Feb 27, 2024 - 10:30 AM EST / 2024.02.27 1530 UTC
Wind: from the S (170 degrees) at 9 MPH (8 KT) gusting to 16 MPH (14 KT):0
Visibility: greater than 7 mile(s):0 Temperature: 46 F (8 C) Dew Point: 35 F (2 C) Relative Humidity: 65% Pressure (altimeter): 30.06 in. Hg (1018 hPa)
ob: UMMS 271530Z 17004G07MPS CAVOK 08/02 Q1018 NOSIG cycle: 15
Sunrise: 05:04 Sunset: 15:36 (UTC)

TAF:2024/02/27 12:21 TAF TAF UMMS 271103Z 2712/2812 16005G10MPS CAVOK TEMPO 2718/2806 3000 BCFG BR FEW002

This route has never been flown.

Route map